Time;durP1;ratioP1;P1;durP2;ratioP2;P2;SDS_P1;SDS_P2;PMS_P1;PMS_P2;Temp;Humidity;BMP_temperature;BMP_pressure;BME280_temperature;BME280_humidity;BME280_pressure;Samples;Min_cycle;Max_cycle;Signal;HPM_P1;HPM_P2
2022/12/14 00:00:02;;;;;;;6.18;0.95;;;;;;;;;;5107587;28;20117;-79
2022/12/14 00:02:39;;;;;;;2.08;0.60;;;;;;;;;;5109055;28;20121;-80
2022/12/14 00:05:09;;;;;;;5.53;0.63;;;;;;;;;;5106913;28;20059;-78
2022/12/14 00:07:39;;;;;;;3.55;0.95;;;;;;;;;;5107056;28;20052;-79
2022/12/14 00:10:09;;;;;;;4.45;0.80;;;;;;;;;;5106548;28;20040;-79
2022/12/14 00:12:39;;;;;;;3.42;0.98;;;;;;;;;;5107888;28;20478;-79
2022/12/14 00:15:09;;;;;;;4.65;0.50;;;;;;;;;;5107434;28;20051;-80
2022/12/14 00:17:39;;;;;;;5.90;0.75;;;;;;;;;;5106783;28;20043;-81
2022/12/14 00:20:09;;;;;;;3.78;0.68;;;;;;;;;;5106455;28;20059;-79
2022/12/14 00:22:39;;;;;;;5.50;0.70;;;;;;;;;;5106926;28;20070;-80
2022/12/14 00:25:09;;;;;;;2.00;0.40;;;;;;;;;;5106617;28;20066;-75
2022/12/14 00:27:46;;;;;;;8.13;1.08;;;;;;;;;;5105663;28;20058;-74
2022/12/14 00:30:19;;;;;;;2.58;0.38;;;;;;;;;;5106507;28;20513;-73
2022/12/14 00:32:53;;;;;;;8.45;1.10;;;;;;;;;;5105309;28;20063;-72
2022/12/14 00:35:24;;;;;;;7.70;0.80;;;;;;;;;;5106856;28;20047;-73
2022/12/14 00:37:54;;;;;;;4.82;0.95;;;;;;;;;;5106509;28;20051;-76
2022/12/14 00:40:24;;;;;;;4.22;1.00;;;;;;;;;;5104819;28;20044;-74
2022/12/14 00:42:53;;;;;;;4.82;1.00;;;;;;;;;;5105793;28;20052;-75
2022/12/14 00:45:23;;;;;;;4.68;0.85;;;;;;;;;;5106345;28;20054;-75
2022/12/14 00:47:55;;;;;;;2.58;1.13;;;;;;;;;;5106064;28;20043;-76
2022/12/14 00:50:25;;;;;;;3.25;0.55;;;;;;;;;;5106621;28;20500;-75
2022/12/14 00:52:55;;;;;;;3.50;0.90;;;;;;;;;;5106225;28;20050;-75
2022/12/14 00:55:25;;;;;;;6.38;0.60;;;;;;;;;;5107043;28;20043;-75
2022/12/14 00:57:55;;;;;;;5.38;0.85;;;;;;;;;;5106711;28;20047;-74
2022/12/14 01:00:25;;;;;;;3.70;1.00;;;;;;;;;;5106441;28;20485;-76
2022/12/14 01:02:55;;;;;;;2.85;0.50;;;;;;;;;;5106199;28;20043;-73
2022/12/14 01:05:25;;;;;;;2.05;0.80;;;;;;;;;;5105882;28;20058;-73
2022/12/14 01:08:01;;;;;;;2.47;0.80;;;;;;;;;;5106460;28;20040;-72
2022/12/14 01:10:32;;;;;;;6.72;0.77;;;;;;;;;;5105985;28;20059;-73
2022/12/14 01:13:02;;;;;;;3.35;0.57;;;;;;;;;;5104293;28;20075;-72
2022/12/14 01:15:35;;;;;;;4.75;0.52;;;;;;;;;;5106307;28;20054;-75
2022/12/14 01:18:05;;;;;;;4.75;0.80;;;;;;;;;;5105296;28;20047;-76
2022/12/14 01:20:36;;;;;;;4.75;0.60;;;;;;;;;;5105727;28;20044;-74
2022/12/14 01:23:06;;;;;;;4.35;0.88;;;;;;;;;;5105471;28;20498;-73
2022/12/14 01:25:37;;;;;;;5.53;0.80;;;;;;;;;;5106550;28;20110;-74
2022/12/14 01:28:07;;;;;;;4.90;0.68;;;;;;;;;;5104404;28;20048;-74
2022/12/14 01:30:39;;;;;;;1.30;0.30;;;;;;;;;;5106336;28;20035;-75
2022/12/14 01:33:09;;;;;;;2.63;0.60;;;;;;;;;;5107669;28;20505;-73
2022/12/14 01:35:39;;;;;;;1.65;0.65;;;;;;;;;;5110789;28;20035;-75
2022/12/14 01:38:09;;;;;;;4.28;0.60;;;;;;;;;;5110067;28;20043;-75
2022/12/14 01:40:38;;;;;;;3.63;0.75;;;;;;;;;;5108996;28;20048;-75
2022/12/14 01:43:14;;;;;;;2.47;0.52;;;;;;;;;;5110628;28;20039;-74
2022/12/14 01:45:43;;;;;;;;;;;;;;;;;;5111445;28;20044;-75
2022/12/14 01:48:13;;;;;;;2.67;0.60;;;;;;;;;;5110333;28;20245;-74
2022/12/14 01:50:46;;;;;;;3.47;0.65;;;;;;;;;;5110629;28;20397;-75
2022/12/14 01:53:20;;;;;;;1.45;0.55;;;;;;;;;;5110232;28;20051;-75
2022/12/14 01:55:54;;;;;;;2.90;1.02;;;;;;;;;;5110098;28;20398;-74
2022/12/14 01:58:27;;;;;;;4.20;1.00;;;;;;;;;;5108460;28;20055;-75
2022/12/14 02:01:00;;;;;;;2.53;0.65;;;;;;;;;;5110467;28;20477;-75
2022/12/14 02:03:38;;;;;;;4.20;0.65;;;;;;;;;;5109490;28;20036;-76
2022/12/14 02:06:34;;;;;;;2.30;0.45;;;;;;;;;;5109742;28;20044;-74
2022/12/14 02:09:08;;;;;;;4.38;0.70;;;;;;;;;;5110122;28;20039;-76
2022/12/14 02:11:46;;;;;;;2.28;0.88;;;;;;;;;;5109679;28;20039;-73
2022/12/14 02:14:16;;;;;;;3.13;0.50;;;;;;;;;;5109578;28;20385;-75
2022/12/14 02:16:52;;;;;;;5.78;0.57;;;;;;;;;;5109730;28;20036;-73
2022/12/14 02:19:23;;;;;;;5.30;0.90;;;;;;;;;;5109510;28;20058;-75
2022/12/14 02:22:18;;;;;;;6.25;0.85;;;;;;;;;;5110196;28;20050;-77
2022/12/14 02:25:08;;;;;;;3.78;0.55;;;;;;;;;;5109082;28;20035;-74
2022/12/14 02:27:38;;;;;;;4.57;0.55;;;;;;;;;;5109778;28;20039;-75
2022/12/14 02:30:16;;;;;;;3.78;0.52;;;;;;;;;;5109356;28;20043;-76
2022/12/14 02:32:54;;;;;;;1.73;0.55;;;;;;;;;;5109946;28;20040;-76
2022/12/14 02:35:45;;;;;;;3.90;1.00;;;;;;;;;;5109741;28;20398;-75
2022/12/14 02:38:27;;;;;;;4.32;0.60;;;;;;;;;;5109251;28;20048;-76
2022/12/14 02:41:20;;;;;;;2.10;0.82;;;;;;;;;;5109180;28;20043;-75
2022/12/14 02:44:04;;;;;;;2.28;0.70;;;;;;;;;;5109356;28;20043;-74
2022/12/14 02:46:58;;;;;;;4.75;0.75;;;;;;;;;;5108372;28;20048;-75
2022/12/14 02:50:02;;;;;;;4.72;0.70;;;;;;;;;;5109603;28;20047;-76
2022/12/14 02:52:35;;;;;;;5.72;0.77;;;;;;;;;;5109116;28;20114;-74
2022/12/14 02:55:37;;;;;;;6.10;0.60;;;;;;;;;;5109590;28;20078;-74
2022/12/14 02:58:29;;;;;;;3.55;0.95;;;;;;;;;;5099716;28;20060;-76
2022/12/14 03:01:00;;;;;;;4.32;0.80;;;;;;;;;;5109311;28;20207;-75
2022/12/14 03:03:30;;;;;;;4.95;0.73;;;;;;;;;;5109296;28;20059;-74
2022/12/14 03:06:03;;;;;;;2.67;0.52;;;;;;;;;;5108678;28;20060;-75
2022/12/14 03:08:35;;;;;;;2.72;1.05;;;;;;;;;;5108585;28;20036;-75
2022/12/14 03:11:06;;;;;;;3.08;0.88;;;;;;;;;;5108632;28;20031;-73
2022/12/14 03:13:59;;;;;;;8.25;1.35;;;;;;;;;;5108395;28;20156;-75
2022/12/14 03:16:40;;;;;;;5.93;0.93;;;;;;;;;;5109137;28;20036;-73
2022/12/14 03:19:40;;;;;;;4.50;0.80;;;;;;;;;;5108662;28;20493;-76
2022/12/14 03:22:23;;;;;;;3.67;0.55;;;;;;;;;;5108386;28;20039;-76
2022/12/14 03:24:58;;;;;;;2.63;0.50;;;;;;;;;;5108249;28;20052;-75
2022/12/14 03:27:35;;;;;;;4.13;1.10;;;;;;;;;;5108585;28;20036;-75
2022/12/14 03:30:16;;;;;;;1.90;0.57;;;;;;;;;;5108084;28;20478;-73
2022/12/14 03:33:14;;;;;;;2.65;1.00;;;;;;;;;;5107948;28;20040;-75
2022/12/14 03:36:08;;;;;;;1.45;0.70;;;;;;;;;;5106475;28;20048;-74
2022/12/14 03:38:44;;;;;;;2.13;0.57;;;;;;;;;;5107864;28;20048;-76
2022/12/14 03:41:21;;;;;;;8.23;0.85;;;;;;;;;;5108342;28;20039;-75
2022/12/14 03:44:11;;;;;;;3.05;0.43;;;;;;;;;;5107966;28;20044;-74
2022/12/14 03:47:00;;;;;;;3.20;0.40;;;;;;;;;;5108271;28;20044;-74
2022/12/14 03:49:48;;;;;;;2.38;1.25;;;;;;;;;;5107877;28;20051;-75
2022/12/14 03:52:48;;;;;;;3.75;1.23;;;;;;;;;;5108108;28;20044;-74
2022/12/14 03:55:20;;;;;;;7.75;1.15;;;;;;;;;;5107634;28;20050;-75
2022/12/14 03:58:09;;;;;;;3.80;1.48;;;;;;;;;;5106771;28;20498;-73
2022/12/14 04:00:57;;;;;;;5.97;0.98;;;;;;;;;;5108220;28;20047;-74
2022/12/14 04:03:49;;;;;;;3.88;0.80;;;;;;;;;;5108577;28;20496;-73
2022/12/14 04:06:37;;;;;;;1.67;0.70;;;;;;;;;;5107648;28;20490;-74
2022/12/14 04:09:48;;;;;;;5.25;0.90;;;;;;;;;;5107714;28;20486;-75
2022/12/14 04:21:43;;;;;;;;;;;;;;;;;;5107627;28;20047;-73
2022/12/14 04:27:44;;;;;;;3.35;0.77;;;;;;;;;;5107012;28;20039;-73
2022/12/14 04:30:15;;;;;;;2.05;0.60;;;;;;;;;;5096881;28;20055;-76
2022/12/14 04:32:50;;;;;;;3.38;0.70;;;;;;;;;;5107126;28;20040;-75
2022/12/14 04:35:40;;;;;;;6.00;1.02;;;;;;;;;;5106909;28;20394;-76
2022/12/14 04:38:21;;;;;;;1.65;0.60;;;;;;;;;;5106873;28;20040;-74
2022/12/14 04:40:55;;;;;;;6.05;0.68;;;;;;;;;;5106884;28;20052;-74
2022/12/14 04:43:30;;;;;;;1.50;0.55;;;;;;;;;;5106735;28;20052;-74
2022/12/14 04:46:28;;;;;;;3.28;0.65;;;;;;;;;;5106833;28;20044;-73
2022/12/14 04:49:16;;;;;;;2.22;0.70;;;;;;;;;;5106517;28;20058;-74
2022/12/14 04:52:04;;;;;;;3.05;0.75;;;;;;;;;;5107108;28;20047;-74
2022/12/14 04:54:40;;;;;;;5.78;1.02;;;;;;;;;;5106485;28;20047;-76
2022/12/14 04:57:31;;;;;;;6.80;0.80;;;;;;;;;;5106821;28;20043;-74
2022/12/14 05:00:01;;;;;;;3.05;0.80;;;;;;;;;;5106304;28;20047;-73
2022/12/14 05:02:45;;;;;;;5.65;0.93;;;;;;;;;;5106748;28;20050;-74
2022/12/14 05:05:38;;;;;;;4.72;0.80;;;;;;;;;;5106213;28;20059;-75
2022/12/14 05:08:20;;;;;;;8.45;1.25;;;;;;;;;;5066691;28;20051;-74
2022/12/14 05:11:09;;;;;;;4.88;0.75;;;;;;;;;;5106573;28;20419;-74
2022/12/14 05:14:00;;;;;;;2.97;0.60;;;;;;;;;;5106317;28;20054;-74
2022/12/14 05:16:30;;;;;;;3.83;0.65;;;;;;;;;;5106748;28;20036;-74
2022/12/14 05:19:01;;;;;;;10.02;1.27;;;;;;;;;;5106021;28;20047;-74
2022/12/14 05:21:49;;;;;;;2.58;0.68;;;;;;;;;;5106386;28;20043;-74
2022/12/14 05:24:19;;;;;;;3.08;0.75;;;;;;;;;;5106432;28;20056;-74
2022/12/14 05:26:49;;;;;;;1.45;0.77;;;;;;;;;;5106536;28;20070;-76
2022/12/14 05:29:18;;;;;;;;;;;;;;;;;;5107134;28;20040;-74
2022/12/14 05:31:49;;;;;;;4.07;0.70;;;;;;;;;;5106738;28;19915;-74
2022/12/14 05:34:19;;;;;;;4.40;0.47;;;;;;;;;;5107275;28;20047;-75
2022/12/14 05:36:49;;;;;;;5.05;0.75;;;;;;;;;;5106598;28;20043;-75
2022/12/14 05:39:18;;;;;;;2.97;0.82;;;;;;;;;;5106856;28;20048;-74
2022/12/14 05:41:48;;;;;;;4.88;0.85;;;;;;;;;;5106539;28;20050;-76
2022/12/14 05:44:19;;;;;;;5.43;0.90;;;;;;;;;;5104421;28;20052;-76
2022/12/14 05:46:49;;;;;;;2.88;0.80;;;;;;;;;;5104285;28;20051;-74
2022/12/14 05:49:19;;;;;;;3.17;1.35;;;;;;;;;;5106020;28;20043;-74
2022/12/14 05:51:49;;;;;;;6.43;0.82;;;;;;;;;;5106899;28;20127;-76
2022/12/14 05:54:19;;;;;;;3.80;0.60;;;;;;;;;;5106292;28;20044;-76
2022/12/14 05:56:49;;;;;;;4.35;0.80;;;;;;;;;;5106134;28;20052;-74
2022/12/14 05:59:19;;;;;;;5.63;0.63;;;;;;;;;;5104263;28;20043;-75
2022/12/14 06:01:48;;;;;;;;;;;;;;;;;;5104801;28;20118;-76
2022/12/14 06:04:19;;;;;;;2.80;0.38;;;;;;;;;;5106575;28;19923;-74
2022/12/14 06:06:49;;;;;;;4.22;0.47;;;;;;;;;;5105850;28;20050;-74
2022/12/14 06:09:20;;;;;;;6.07;0.88;;;;;;;;;;5105677;28;20040;-75
2022/12/14 06:11:51;;;;;;;1.02;0.50;;;;;;;;;;5105992;28;20401;-74
2022/12/14 06:14:23;;;;;;;3.85;0.43;;;;;;;;;;5106110;28;20043;-74
2022/12/14 06:16:53;;;;;;;4.57;0.50;;;;;;;;;;5105797;28;20055;-76
2022/12/14 06:19:24;;;;;;;2.60;0.60;;;;;;;;;;5106257;28;20062;-75
2022/12/14 06:21:53;;;;;;;;;;;;;;;;;;5110300;28;20035;-77
2022/12/14 06:24:23;;;;;;;4.93;0.82;;;;;;;;;;5109258;28;19938;-75
2022/12/14 06:26:53;;;;;;;2.13;0.47;;;;;;;;;;5107841;28;20048;-73
2022/12/14 06:29:23;;;;;;;;;;;;;;;;;;5110536;28;20051;-76
2022/12/14 06:31:52;;;;;;;2.55;0.60;;;;;;;;;;5109432;28;20236;-76
2022/12/14 06:34:22;;;;;;;3.22;0.90;;;;;;;;;;5110075;28;21208;-74
2022/12/14 06:36:56;;;;;;;5.45;0.65;;;;;;;;;;5109650;28;20046;-74
2022/12/14 06:39:25;;;;;;;;;;;;;;;;;;5109829;28;20043;-74
2022/12/14 06:41:55;;;;;;;5.57;0.88;;;;;;;;;;5109152;28;19934;-75
2022/12/14 06:44:25;;;;;;;3.38;0.55;;;;;;;;;;5109131;28;20102;-74
2022/12/14 06:46:54;;;;;;;3.83;0.50;;;;;;;;;;5109088;28;20402;-74
2022/12/14 06:49:25;;;;;;;1.65;0.70;;;;;;;;;;5109575;28;20040;-74
2022/12/14 06:51:54;;;;;;;3.85;0.65;;;;;;;;;;5108697;28;20039;-74
2022/12/14 06:54:23;;;;;;;;;;;;;;;;;;5109236;28;20042;-75
2022/12/14 06:56:53;;;;;;;2.08;0.47;;;;;;;;;;5106937;28;20294;-76
2022/12/14 06:59:23;;;;;;;1.98;0.63;;;;;;;;;;5108822;28;20052;-75
2022/12/14 07:01:52;;;;;;;;;;;;;;;;;;5109737;28;20044;-75
2022/12/14 07:04:23;;;;;;;5.20;0.70;;;;;;;;;;5108863;28;19923;-75
2022/12/14 07:06:53;;;;;;;5.75;0.70;;;;;;;;;;5108887;28;20058;-74
2022/12/14 07:09:22;;;;;;;6.28;0.65;;;;;;;;;;5108323;28;20039;-76
2022/12/14 07:11:52;;;;;;;;;;;;;;;;;;5108725;28;20067;-76
2022/12/14 07:14:22;;;;;;;1.63;0.60;;;;;;;;;;5108233;28;19927;-75
2022/12/14 07:16:51;;;;;;;5.05;0.80;;;;;;;;;;5108685;28;20052;-75
2022/12/14 07:19:21;;;;;;;2.97;0.70;;;;;;;;;;5108399;28;20043;-74
2022/12/14 07:21:51;;;;;;;4.60;0.70;;;;;;;;;;5108652;28;20359;-75
2022/12/14 07:24:20;;;;;;;;;;;;;;;;;;5108828;28;20044;-75
2022/12/14 07:26:50;;;;;;;4.90;0.50;;;;;;;;;;5107225;28;19939;-76
2022/12/14 07:29:20;;;;;;;1.80;0.50;;;;;;;;;;5108565;28;20039;-74
2022/12/14 07:31:51;;;;;;;3.78;0.85;;;;;;;;;;5108396;28;20486;-74
2022/12/14 07:34:21;;;;;;;2.33;0.60;;;;;;;;;;5108503;28;20052;-75
2022/12/14 07:36:52;;;;;;;3.97;1.10;;;;;;;;;;5108248;28;20489;-75
2022/12/14 07:39:23;;;;;;;3.53;0.93;;;;;;;;;;5107856;28;20050;-76
2022/12/14 07:41:53;;;;;;;3.72;1.30;;;;;;;;;;5108091;28;20035;-75
2022/12/14 07:44:23;;;;;;;3.85;0.80;;;;;;;;;;5107974;28;20044;-76
2022/12/14 07:46:52;;;;;;;;;;;;;;;;;;5108669;28;20043;-76
2022/12/14 07:49:22;;;;;;;1.45;0.70;;;;;;;;;;5107938;28;20496;-74
2022/12/14 07:51:51;;;;;;;;;;;;;;;;;;5108221;28;20058;-75
2022/12/14 07:54:22;;;;;;;1.42;0.43;;;;;;;;;;5108120;28;19923;-75
2022/12/14 07:56:52;;;;;;;3.08;0.85;;;;;;;;;;5108099;28;20043;-74
2022/12/14 07:59:22;;;;;;;3.70;0.85;;;;;;;;;;5108095;28;20043;-75
2022/12/14 08:01:54;;;;;;;1.95;0.95;;;;;;;;;;5106737;28;20054;-75
2022/12/14 08:04:25;;;;;;;2.08;0.50;;;;;;;;;;5107275;28;20051;-75
2022/12/14 08:06:55;;;;;;;3.72;0.70;;;;;;;;;;5107907;28;20059;-75
2022/12/14 08:09:26;;;;;;;2.20;0.50;;;;;;;;;;5107824;28;20113;-74
2022/12/14 08:11:55;;;;;;;2.85;0.90;;;;;;;;;;5107126;28;20043;-75
2022/12/14 08:14:25;;;;;;;;;;;;;;;;;;5108010;28;20050;-75
2022/12/14 08:16:54;;;;;;;2.80;1.00;;;;;;;;;;5106229;28;20346;-74
2022/12/14 08:19:23;;;;;;;;;;;;;;;;;;5108364;28;20403;-74
2022/12/14 08:21:53;;;;;;;3.88;0.80;;;;;;;;;;5107283;28;19930;-75
2022/12/14 08:24:24;;;;;;;3.90;0.68;;;;;;;;;;5108402;28;20051;-74
2022/12/14 08:26:53;;;;;;;;;;;;;;;;;;5107841;28;20054;-74
2022/12/14 08:29:23;;;;;;;3.25;0.63;;;;;;;;;;5105450;28;19931;-75
2022/12/14 08:31:54;;;;;;;;;;;;;;;;;;5106311;28;20047;-74
2022/12/14 08:34:24;;;;;;;3.72;0.73;;;;;;;;;;5107233;28;20274;-74
2022/12/14 08:36:54;;;;;;;3.08;0.82;;;;;;;;;;5106997;28;20056;-75
2022/12/14 08:39:24;;;;;;;1.23;0.80;;;;;;;;;;5106846;28;20039;-74
2022/12/14 08:41:54;;;;;;;1.95;0.80;;;;;;;;;;5104930;28;20074;-75
2022/12/14 08:44:24;;;;;;;5.78;0.77;;;;;;;;;;5107033;28;20075;-74
2022/12/14 08:46:54;;;;;;;5.55;0.88;;;;;;;;;;5106785;28;20047;-75
2022/12/14 08:49:23;;;;;;;1.35;0.73;;;;;;;;;;5105588;28;20055;-75
2022/12/14 08:52:00;;;;;;;4.00;0.60;;;;;;;;;;5107072;28;20062;-74
2022/12/14 08:54:30;;;;;;;6.03;1.15;;;;;;;;;;5107888;28;20050;-75
2022/12/14 08:57:00;;;;;;;3.58;0.80;;;;;;;;;;5107783;28;20047;-75
2022/12/14 08:59:30;;;;;;;2.78;0.60;;;;;;;;;;5107140;28;20062;-75
2022/12/14 09:02:20;;;;;;;1.17;0.60;;;;;;;;;;5105000;28;20048;-75
2022/12/14 09:04:50;;;;;;;3.70;0.90;;;;;;;;;;5106559;28;20062;-79
2022/12/14 09:07:20;;;;;;;1.38;0.55;;;;;;;;;;5106732;28;20075;-74
2022/12/14 09:09:50;;;;;;;4.30;0.80;;;;;;;;;;5106650;28;20051;-75
2022/12/14 09:12:22;;;;;;;5.40;0.95;;;;;;;;;;5107019;28;20044;-75
2022/12/14 09:14:52;;;;;;;6.47;0.73;;;;;;;;;;5106866;28;20038;-75
2022/12/14 09:17:22;;;;;;;4.00;0.75;;;;;;;;;;5106612;28;20371;-74
2022/12/14 09:19:52;;;;;;;4.18;1.25;;;;;;;;;;5106805;28;20050;-75
2022/12/14 09:22:22;;;;;;;7.35;1.20;;;;;;;;;;5107110;28;20050;-74
2022/12/14 09:24:52;;;;;;;2.53;1.05;;;;;;;;;;5106866;28;20051;-74
2022/12/14 09:27:21;;;;;;;5.47;1.45;;;;;;;;;;5105146;28;20036;-77
2022/12/14 09:29:51;;;;;;;4.20;1.05;;;;;;;;;;5106502;28;20043;-75
2022/12/14 09:32:20;;;;;;;;;;;;;;;;;;5107213;28;20063;-75
2022/12/14 09:34:51;;;;;;;2.65;0.82;;;;;;;;;;5106845;28;19919;-75
2022/12/14 09:37:21;;;;;;;4.80;1.10;;;;;;;;;;5106527;28;20047;-75
2022/12/14 09:39:51;;;;;;;3.03;1.02;;;;;;;;;;5106450;28;20067;-75
2022/12/14 09:42:46;;;;;;;4.13;1.35;;;;;;;;;;5106341;28;20040;-74
2022/12/14 09:45:30;;;;;;;2.95;0.88;;;;;;;;;;5106446;28;20044;-76
2022/12/14 09:48:17;;;;;;;4.38;1.38;;;;;;;;;;5106999;28;20048;-76
2022/12/14 09:50:49;;;;;;;7.30;1.20;;;;;;;;;;5106782;28;20074;-76
2022/12/14 09:53:21;;;;;;;3.88;1.20;;;;;;;;;;5106719;28;20039;-75
2022/12/14 09:55:54;;;;;;;2.85;0.95;;;;;;;;;;5109112;28;20393;-81
2022/12/14 09:58:33;;;;;;;9.55;1.55;;;;;;;;;;5108993;28;20039;-75
2022/12/14 10:01:22;;;;;;;7.35;1.20;;;;;;;;;;5110045;28;20063;-75
2022/12/14 10:04:18;;;;;;;7.15;1.67;;;;;;;;;;5110128;28;20508;-75
2022/12/14 10:07:31;;;;;;;7.65;0.80;;;;;;;;;;5110028;28;20054;-74
2022/12/14 10:10:26;;;;;;;7.10;1.00;;;;;;;;;;5110294;28;20048;-75
2022/12/14 10:12:56;;;;;;;;;;;;;;;;;;5110263;28;20042;-75
2022/12/14 10:15:38;;;;;;;15.00;1.52;;;;;;;;;;5109533;28;19915;-75
2022/12/14 10:18:37;;;;;;;4.82;0.73;;;;;;;;;;5110096;28;20051;-74
2022/12/14 10:21:53;;;;;;;5.13;1.30;;;;;;;;;;5091443;28;20063;-75
2022/12/14 10:24:37;;;;;;;3.88;0.90;;;;;;;;;;5109879;28;20059;-75
2022/12/14 10:27:10;;;;;;;10.20;1.08;;;;;;;;;;5117384;27;20058;-78
2022/12/14 10:29:48;;;;;;;5.32;0.82;;;;;;;;;;5129893;27;20388;-74
2022/12/14 10:32:35;;;;;;;4.50;0.90;;;;;;;;;;5129919;27;20043;-76
2022/12/14 10:35:16;;;;;;;6.18;1.02;;;;;;;;;;5130070;27;20070;-81
2022/12/14 10:38:12;;;;;;;5.57;1.45;;;;;;;;;;5128096;27;20403;-75
2022/12/14 10:40:48;;;;;;;3.15;0.80;;;;;;;;;;5128904;27;20035;-77
2022/12/14 10:43:39;;;;;;;3.83;0.60;;;;;;;;;;5130278;27;20039;-84
2022/12/14 10:46:39;;;;;;;11.25;1.63;;;;;;;;;;5130226;27;20485;-74
2022/12/14 10:49:20;;;;;;;3.92;0.82;;;;;;;;;;5125563;27;20051;-75
2022/12/14 10:52:01;;;;;;;3.97;1.10;;;;;;;;;;5129732;27;20485;-78
2022/12/14 10:54:43;;;;;;;3.40;0.90;;;;;;;;;;5129675;27;20484;-78
2022/12/14 10:57:23;;;;;;;7.07;1.50;;;;;;;;;;5129127;27;20046;-75
2022/12/14 10:59:56;;;;;;;7.45;1.38;;;;;;;;;;5129246;27;20031;-75
2022/12/14 11:02:49;;;;;;;6.20;1.23;;;;;;;;;;5129512;27;20047;-76
2022/12/14 11:05:28;;;;;;;4.43;1.40;;;;;;;;;;5128692;27;20482;-75
2022/12/14 11:08:06;;;;;;;3.00;0.75;;;;;;;;;;5129617;27;20047;-74
2022/12/14 11:10:40;;;;;;;6.53;1.13;;;;;;;;;;5129694;27;20047;-74
2022/12/14 11:13:13;;;;;;;3.50;0.90;;;;;;;;;;5129110;27;20090;-76
2022/12/14 11:15:49;;;;;;;5.32;1.08;;;;;;;;;;5129787;27;20039;-75
2022/12/14 11:18:29;;;;;;;7.65;1.10;;;;;;;;;;5129104;27;20031;-74
2022/12/14 11:21:03;;;;;;;2.83;0.75;;;;;;;;;;5129264;27;20106;-76
2022/12/14 11:23:44;;;;;;;10.13;1.77;;;;;;;;;;5128900;27;20050;-73
2022/12/14 11:26:39;;;;;;;5.05;0.75;;;;;;;;;;5128584;27;20040;-77
2022/12/14 11:29:29;;;;;;;2.50;0.90;;;;;;;;;;5129304;27;20042;-74
2022/12/14 11:32:00;;;;;;;3.83;1.15;;;;;;;;;;5128257;27;20043;-73
2022/12/14 11:34:34;;;;;;;7.43;0.95;;;;;;;;;;5126898;27;20047;-72
2022/12/14 11:37:24;;;;;;;3.20;1.00;;;;;;;;;;5127688;27;20054;-74
2022/12/14 11:40:02;;;;;;;3.33;0.70;;;;;;;;;;5126217;27;20047;-73
2022/12/14 11:42:34;;;;;;;3.75;1.15;;;;;;;;;;5127172;27;20062;-73
2022/12/14 11:45:26;;;;;;;8.90;1.65;;;;;;;;;;5128646;27;20042;-73
2022/12/14 11:48:19;;;;;;;2.67;1.52;;;;;;;;;;5128907;27;20042;-73
2022/12/14 11:50:52;;;;;;;4.13;1.15;;;;;;;;;;5128681;27;20485;-73
2022/12/14 11:53:23;;;;;;;5.20;1.23;;;;;;;;;;5128655;27;20039;-74
2022/12/14 11:56:02;;;;;;;3.97;1.70;;;;;;;;;;5127439;27;20054;-75
2022/12/14 11:58:36;;;;;;;;;;;;;;;;;;5129033;27;20047;-75
2022/12/14 12:01:16;;;;;;;3.58;1.70;;;;;;;;;;5128196;27;19922;-75
2022/12/14 12:03:58;;;;;;;3.13;1.05;;;;;;;;;;5128400;27;20027;-75
2022/12/14 12:06:29;;;;;;;4.05;0.73;;;;;;;;;;5128640;27;20592;-75
2022/12/14 12:09:02;;;;;;;3.42;0.90;;;;;;;;;;5128867;27;20489;-74
2022/12/14 12:11:34;;;;;;;2.85;0.73;;;;;;;;;;5128263;27;20039;-75
2022/12/14 12:14:34;;;;;;;3.33;0.73;;;;;;;;;;5128566;27;20401;-75
2022/12/14 12:17:20;;;;;;;3.13;0.90;;;;;;;;;;5127827;27;20088;-75
2022/12/14 12:19:54;;;;;;;5.22;0.75;;;;;;;;;;5126860;27;20379;-75
2022/12/14 12:22:30;;;;;;;4.30;0.85;;;;;;;;;;5127443;27;20035;-76
2022/12/14 12:25:05;;;;;;;2.78;0.60;;;;;;;;;;5128049;27;20046;-75
2022/12/14 12:28:10;;;;;;;3.85;1.00;;;;;;;;;;5127223;27;20032;-76
2022/12/14 12:30:44;;;;;;;2.42;0.70;;;;;;;;;;5126636;27;20043;-75
2022/12/14 12:33:48;;;;;;;3.00;0.80;;;;;;;;;;5128568;27;20051;-82
2022/12/14 12:36:21;;;;;;;3.40;0.73;;;;;;;;;;5112909;27;20055;-78
2022/12/14 12:39:23;;;;;;;1.08;0.50;;;;;;;;;;5129635;27;20042;-80
2022/12/14 12:42:49;;;;;;;3.10;0.63;;;;;;;;;;5059765;27;20055;-74
2022/12/14 12:45:51;;;;;;;3.58;0.90;;;;;;;;;;5126271;27;20113;-74
2022/12/14 12:48:29;;;;;;;2.22;0.47;;;;;;;;;;5127585;27;20039;-74
2022/12/14 12:51:12;;;;;;;3.20;0.65;;;;;;;;;;5127467;27;20043;-75
2022/12/14 12:53:46;;;;;;;1.60;0.88;;;;;;;;;;5128085;27;20545;-77
2022/12/14 12:56:21;;;;;;;5.15;0.90;;;;;;;;;;5127436;27;20047;-75
2022/12/14 12:58:52;;;;;;;2.33;0.55;;;;;;;;;;5125222;27;20035;-75
2022/12/14 13:01:39;;;;;;;1.55;0.63;;;;;;;;;;5127725;27;20047;-75
2022/12/14 13:04:24;;;;;;;5.07;0.80;;;;;;;;;;5127488;27;20043;-74
2022/12/14 13:07:02;;;;;;;4.30;0.55;;;;;;;;;;5127523;27;20051;-74
2022/12/14 13:10:08;;;;;;;3.22;0.60;;;;;;;;;;5127809;27;20040;-74
2022/12/14 13:12:43;;;;;;;2.97;0.52;;;;;;;;;;5120354;28;20055;-75
2022/12/14 13:15:25;;;;;;;1.80;0.50;;;;;;;;;;5127352;28;20385;-73
2022/12/14 13:18:23;;;;;;;3.15;0.40;;;;;;;;;;5127204;28;20393;-83
2022/12/14 13:21:28;;;;;;;1.70;0.43;;;;;;;;;;5127182;28;20042;-75
2022/12/14 13:23:58;;;;;;;5.78;2.08;;;;;;;;;;5126807;28;20044;-75
2022/12/14 13:26:47;;;;;;;1.67;0.60;;;;;;;;;;5126888;28;20054;-78
2022/12/14 13:29:35;;;;;;;3.78;0.95;;;;;;;;;;5129009;27;20048;-76
2022/12/14 13:32:41;;;;;;;1.27;0.60;;;;;;;;;;5131585;27;20046;-75
2022/12/14 13:35:51;;;;;;;2.40;0.60;;;;;;;;;;5131765;27;20031;-75
2022/12/14 13:38:50;;;;;;;2.35;0.65;;;;;;;;;;5130046;27;20047;-74
2022/12/14 13:41:42;;;;;;;2.13;0.52;;;;;;;;;;5131156;27;20046;-76
2022/12/14 13:44:44;;;;;;;1.42;0.73;;;;;;;;;;5129412;27;20501;-74
2022/12/14 13:47:19;;;;;;;2.08;0.50;;;;;;;;;;5131157;27;20043;-76
2022/12/14 13:49:55;;;;;;;1.58;0.55;;;;;;;;;;5130743;27;20054;-73
2022/12/14 13:52:48;;;;;;;3.45;0.50;;;;;;;;;;5129628;27;20421;-76
2022/12/14 13:55:22;;;;;;;1.52;0.55;;;;;;;;;;5131530;27;20042;-73
2022/12/14 13:58:04;;;;;;;2.65;0.68;;;;;;;;;;5131137;27;20039;-73
2022/12/14 14:00:51;;;;;;;2.15;0.57;;;;;;;;;;5130762;27;20042;-77
2022/12/14 14:03:36;;;;;;;5.22;0.50;;;;;;;;;;5129024;27;20051;-74
2022/12/14 14:06:11;;;;;;;;;;;;;;;;;;5131127;27;20054;-76
2022/12/14 14:08:43;;;;;;;3.05;0.35;;;;;;;;;;5130633;27;19915;-74
2022/12/14 14:11:23;;;;;;;2.67;0.60;;;;;;;;;;5129116;27;20382;-75
2022/12/14 14:14:44;;;;;;;4.28;0.82;;;;;;;;;;5130484;27;20484;-75
2022/12/14 14:17:45;;;;;;;3.75;0.50;;;;;;;;;;5128777;27;20039;-75
2022/12/14 14:20:41;;;;;;;2.78;0.82;;;;;;;;;;5130766;27;20054;-78
2022/12/14 14:23:16;;;;;;;1.95;0.57;;;;;;;;;;5128435;27;20043;-77
2022/12/14 14:26:19;;;;;;;1.95;0.60;;;;;;;;;;5129775;27;20042;-81
2022/12/14 14:29:20;;;;;;;1.40;0.40;;;;;;;;;;5116095;27;20050;-74
2022/12/14 14:31:55;;;;;;;1.38;0.50;;;;;;;;;;5125837;27;20056;-75
2022/12/14 14:34:47;;;;;;;1.75;0.70;;;;;;;;;;5130402;27;20047;-75
2022/12/14 14:37:21;;;;;;;7.68;3.38;;;;;;;;;;5130059;27;20054;-75
2022/12/14 14:40:13;;;;;;;4.05;2.05;;;;;;;;;;5111241;27;20050;-75
2022/12/14 14:43:26;;;;;;;3.83;1.38;;;;;;;;;;5130268;27;20054;-75
2022/12/14 14:46:00;;;;;;;;;;;;;;;;;;5130228;27;20039;-75
2022/12/14 14:48:38;;;;;;;1.95;0.70;;;;;;;;;;5129893;27;20298;-75
2022/12/14 14:51:20;;;;;;;1.42;0.63;;;;;;;;;;5130382;27;20465;-74
2022/12/14 14:54:18;;;;;;;2.83;1.05;;;;;;;;;;5130057;27;20048;-76
2022/12/14 14:57:53;;;;;;;1.60;0.50;;;;;;;;;;5129839;27;20062;-75
2022/12/14 15:00:24;;;;;;;2.25;0.63;;;;;;;;;;5128279;27;20050;-74
2022/12/14 15:02:56;;;;;;;2.28;0.60;;;;;;;;;;5129231;27;20054;-75
2022/12/14 15:05:35;;;;;;;2.15;0.60;;;;;;;;;;5129406;27;20055;-76
2022/12/14 15:08:24;;;;;;;3.42;0.70;;;;;;;;;;5130359;27;20039;-76
2022/12/14 15:10:54;;;;;;;4.45;1.42;;;;;;;;;;5129159;27;20047;-76
2022/12/14 15:13:45;;;;;;;2.88;0.63;;;;;;;;;;5130191;27;20039;-77
2022/12/14 15:16:24;;;;;;;1.55;0.50;;;;;;;;;;5128420;27;20047;-75
2022/12/14 15:18:54;;;;;;;3.35;0.52;;;;;;;;;;5128794;27;20043;-75
2022/12/14 15:21:25;;;;;;;4.93;0.80;;;;;;;;;;5129466;27;20039;-75
2022/12/14 15:23:55;;;;;;;5.05;0.63;;;;;;;;;;5129907;27;20070;-76
2022/12/14 15:26:33;;;;;;;3.03;0.50;;;;;;;;;;5127521;27;20047;-74
2022/12/14 15:29:03;;;;;;;3.55;0.70;;;;;;;;;;5129726;27;20046;-76
2022/12/14 15:31:38;;;;;;;2.35;0.70;;;;;;;;;;5129611;27;20066;-75
2022/12/14 15:34:18;;;;;;;;;;;;;;;;;;5129592;27;20047;-75
2022/12/14 15:36:50;;;;;;;0.77;0.40;;;;;;;;;;5129809;27;19926;-76
2022/12/14 15:39:42;;;;;;;2.00;0.50;;;;;;;;;;5129370;27;20043;-72
2022/12/14 15:42:17;;;;;;;0.77;0.43;;;;;;;;;;5129203;27;20035;-75
2022/12/14 15:44:56;;;;;;;2.45;0.57;;;;;;;;;;5128701;27;20043;-75
2022/12/14 15:47:30;;;;;;;0.55;0.43;;;;;;;;;;5128918;27;20453;-75
2022/12/14 15:50:28;;;;;;;4.30;1.35;;;;;;;;;;5129584;27;20543;-74
2022/12/14 15:53:12;;;;;;;2.13;0.50;;;;;;;;;;5128646;27;20043;-74
2022/12/14 15:55:46;;;;;;;1.15;0.50;;;;;;;;;;5110449;27;20074;-75
2022/12/14 15:58:32;;;;;;;2.00;0.35;;;;;;;;;;5129691;27;20047;-76
2022/12/14 16:01:16;;;;;;;1.15;0.50;;;;;;;;;;5127043;27;20046;-74
2022/12/14 16:03:53;;;;;;;5.13;0.70;;;;;;;;;;5128011;27;20043;-77
2022/12/14 16:06:26;;;;;;;4.13;0.47;;;;;;;;;;5128966;27;20051;-74
2022/12/14 16:09:03;;;;;;;2.05;0.40;;;;;;;;;;5129137;27;20047;-74